Time;durP1;ratioP1;P1;durP2;ratioP2;P2;SDS_P1;SDS_P2;PMS_P1;PMS_P2;Temp;Humidity;BMP_temperature;BMP_pressure;BME280_temperature;BME280_humidity;BME280_pressure;Samples;Min_cycle;Max_cycle;Signal;HPM_P1;HPM_P2
2022/01/29 00:01:17;;;;;;;17.57;9.50;;;4.70;99.80;;;;;;5079279;28;20960;-88
2022/01/29 00:03:44;;;;;;;13.30;9.87;;;4.70;99.90;;;;;;5070508;28;20478;-87
2022/01/29 00:06:12;;;;;;;13.13;9.10;;;4.80;99.90;;;;;;5086204;28;20437;-87
2022/01/29 00:08:38;;;;;;;14.00;10.50;;;4.80;99.90;;;;;;5071328;28;20502;-87
2022/01/29 00:11:10;;;;;;;15.27;9.20;;;4.90;99.90;;;;;;5061044;28;20452;-88
2022/01/29 00:13:38;;;;;;;14.00;8.90;;;4.90;99.90;;;;;;5065707;28;20478;-87
2022/01/29 00:16:05;;;;;;;11.07;9.97;;;4.90;99.90;;;;;;5060272;28;20992;-88
2022/01/29 00:18:32;;;;;;;12.87;9.33;;;4.90;99.90;;;;;;5066302;28;20472;-88
2022/01/29 00:20:58;;;;;;;12.77;9.63;;;4.90;99.90;;;;;;5066785;28;20790;-88
2022/01/29 00:23:26;;;;;;;17.23;10.27;;;4.90;99.90;;;;;;5064848;28;20479;-88
2022/01/29 00:25:53;;;;;;;10.10;9.00;;;4.80;99.90;;;;;;5062304;28;20451;-88
2022/01/29 00:28:20;;;;;;;12.40;10.20;;;4.80;99.90;;;;;;5069596;28;20466;-88
2022/01/29 00:30:47;;;;;;;13.77;10.20;;;4.80;99.90;;;;;;5073041;28;20470;-86
2022/01/29 00:33:14;;;;;;;14.03;11.37;;;4.80;99.90;;;;;;5075292;28;20444;-85
2022/01/29 00:35:41;;;;;;;11.67;10.23;;;4.80;99.90;;;;;;5063134;28;20802;-86
2022/01/29 00:38:08;;;;;;;12.90;9.70;;;4.90;99.90;;;;;;5060416;28;20584;-85
2022/01/29 00:40:37;;;;;;;11.07;9.60;;;4.90;99.90;;;;;;5063320;28;21152;-88
2022/01/29 00:43:05;;;;;;;12.30;9.70;;;5.00;99.90;;;;;;5068289;28;20483;-88
2022/01/29 00:45:32;;;;;;;15.83;9.70;;;4.80;99.90;;;;;;5058287;28;20536;-88
2022/01/29 00:47:59;;;;;;;13.23;10.87;;;4.80;99.90;;;;;;5066916;28;20990;-89
2022/01/29 00:50:26;;;;;;;12.53;10.40;;;4.80;99.90;;;;;;5063361;28;20440;-88
2022/01/29 00:52:53;;;;;;;13.30;10.50;;;4.80;99.90;;;;;;5059785;28;20451;-88
2022/01/29 00:55:19;;;;;;;11.50;9.17;;;4.70;99.90;;;;;;5072008;28;20446;-88
2022/01/29 00:57:48;;;;;;;14.77;8.97;;;4.70;99.90;;;;;;5080548;28;20459;-88
2022/01/29 01:00:15;;;;;;;14.20;10.20;;;4.80;99.90;;;;;;5059818;28;20881;-88
2022/01/29 01:02:42;;;;;;;17.33;9.70;;;4.70;99.90;;;;;;5069994;28;20467;-88
2022/01/29 01:05:10;;;;;;;10.43;9.43;;;4.70;99.90;;;;;;5076184;28;20444;-88
2022/01/29 01:07:37;;;;;;;11.23;10.03;;;4.80;99.90;;;;;;5087824;28;20476;-88
2022/01/29 01:10:06;;;;;;;11.67;9.70;;;4.70;99.90;;;;;;5070144;28;20447;-89
2022/01/29 01:12:33;;;;;;;11.63;8.50;;;4.70;99.90;;;;;;5066506;28;20444;-88
2022/01/29 01:15:01;;;;;;;13.70;9.87;;;4.70;99.90;;;;;;5060175;28;20450;-87
2022/01/29 01:17:28;;;;;;;10.07;8.63;;;4.70;99.90;;;;;;5059960;28;20882;-88
2022/01/29 01:19:55;;;;;;;9.73;8.13;;;4.80;99.90;;;;;;5057929;28;20448;-89
2022/01/29 01:25:39;;;;;;;10.50;8.47;;;4.80;99.90;;;;;;4973908;28;20454;-89
2022/01/29 01:28:06;;;;;;;13.20;9.17;;;4.80;99.90;;;;;;5060195;28;21036;-88
2022/01/29 01:30:36;;;;;;;9.90;8.70;;;4.80;99.90;;;;;;5060635;28;20441;-89
2022/01/29 01:33:03;;;;;;;13.90;10.20;;;4.80;99.90;;;;;;5056999;28;20463;-89
2022/01/29 01:35:34;;;;;;;10.37;8.47;;;4.80;99.90;;;;;;5068617;28;20445;-88
2022/01/29 01:38:09;;;;;;;9.67;8.40;;;4.80;99.90;;;;;;5062442;28;20475;-88
2022/01/29 01:40:37;;;;;;;13.40;8.17;;;4.80;99.90;;;;;;5055324;28;21402;-89
2022/01/29 01:43:04;;;;;;;9.07;8.17;;;4.80;99.90;;;;;;5055879;28;20487;-89
2022/01/29 01:45:31;;;;;;;12.67;8.20;;;4.90;99.90;;;;;;5057084;28;20443;-90
2022/01/29 01:48:03;;;;;;;10.13;8.17;;;4.90;99.90;;;;;;5058584;28;20484;-89
2022/01/29 01:50:30;;;;;;;9.67;8.53;;;4.90;99.90;;;;;;5060977;28;20493;-89
2022/01/29 01:52:56;;;;;;;9.60;7.43;;;4.90;99.90;;;;;;5085987;28;20428;-89
2022/01/29 01:55:23;;;;;;;9.70;8.00;;;4.90;99.90;;;;;;5059800;28;20432;-89
2022/01/29 01:57:50;;;;;;;10.33;8.00;;;4.80;99.90;;;;;;5069118;28;20498;-90
2022/01/29 02:00:17;;;;;;;11.87;9.00;;;4.80;99.90;;;;;;5064206;28;21045;-89
2022/01/29 02:02:44;;;;;;;9.87;8.33;;;4.90;99.90;;;;;;5054706;28;20851;-89
2022/01/29 02:05:12;;;;;;;11.20;9.20;;;4.90;99.90;;;;;;5061765;28;20452;-89
2022/01/29 02:07:39;;;;;;;13.63;9.67;;;4.90;99.90;;;;;;5055683;28;20557;-89
2022/01/29 02:10:09;;;;;;;11.63;10.37;;;5.00;99.90;;;;;;5055465;28;20509;-89
2022/01/29 02:12:46;;;;;;;11.00;9.73;;;4.90;99.90;;;;;;5063612;28;20456;-89
2022/01/29 02:15:14;;;;;;;12.73;10.93;;;4.90;99.90;;;;;;5078866;28;20459;-89
2022/01/29 02:17:42;;;;;;;16.13;11.13;;;4.90;99.90;;;;;;5075116;28;20502;-89
2022/01/29 02:20:09;;;;;;;13.40;10.63;;;4.80;99.90;;;;;;5068318;28;20444;-89
2022/01/29 02:22:39;;;;;;;14.87;11.17;;;4.80;99.90;;;;;;5070205;28;20477;-88
2022/01/29 02:25:07;;;;;;;14.17;11.03;;;4.80;99.90;;;;;;5076627;28;20429;-87
2022/01/29 02:27:33;;;;;;;18.83;12.73;;;4.70;99.90;;;;;;5084631;28;20465;-87
2022/01/29 02:30:00;;;;;;;16.47;9.77;;;4.80;99.90;;;;;;5079205;28;20449;-89
2022/01/29 02:32:27;;;;;;;16.03;10.90;;;4.70;99.90;;;;;;5074695;28;20420;-88
2022/01/29 02:34:53;;;;;;;12.97;11.63;;;4.80;99.90;;;;;;5081370;28;20460;-89
2022/01/29 02:37:20;;;;;;;12.50;9.87;;;4.70;99.90;;;;;;5086402;28;20513;-89
2022/01/29 02:39:48;;;;;;;14.23;10.73;;;4.70;99.90;;;;;;5064317;28;20440;-89
2022/01/29 02:42:15;;;;;;;13.50;9.67;;;4.70;99.90;;;;;;5062356;28;20445;-89
2022/01/29 02:44:41;;;;;;;14.77;10.57;;;4.60;99.90;;;;;;5063886;28;20523;-89
2022/01/29 02:47:26;;;;;;;12.60;10.20;;;4.60;99.90;;;;;;5056857;28;20496;-89
2022/01/29 02:49:52;;;;;;;14.20;12.70;;;4.60;99.90;;;;;;5058566;28;20486;-88
2022/01/29 02:52:19;;;;;;;13.70;10.40;;;4.60;99.90;;;;;;5070616;28;20445;-89
2022/01/29 02:54:47;;;;;;;11.77;10.50;;;4.60;99.90;;;;;;5061108;28;20859;-89
2022/01/29 02:57:15;;;;;;;12.23;10.00;;;4.50;99.90;;;;;;5080193;28;20547;-88
2022/01/29 02:59:41;;;;;;;13.90;10.70;;;4.40;99.90;;;;;;5069071;28;20447;-89
2022/01/29 03:02:08;;;;;;;12.30;10.67;;;4.40;99.90;;;;;;5080904;28;20432;-89
2022/01/29 03:04:35;;;;;;;11.90;10.30;;;4.30;99.90;;;;;;5078191;28;20472;-89
2022/01/29 03:07:01;;;;;;;14.03;10.90;;;4.20;99.90;;;;;;5062082;28;20489;-90
2022/01/29 03:09:28;;;;;;;17.20;11.63;;;4.20;99.90;;;;;;5062637;28;20435;-88
2022/01/29 03:11:57;;;;;;;13.70;12.30;;;4.20;99.90;;;;;;5060687;28;20448;-88
2022/01/29 03:14:24;;;;;;;13.43;11.53;;;4.20;99.90;;;;;;5057723;28;20536;-89
2022/01/29 03:16:50;;;;;;;11.70;10.30;;;4.20;99.90;;;;;;5057508;28;20502;-89
2022/01/29 03:19:17;;;;;;;13.00;9.40;;;4.20;99.90;;;;;;5058692;28;20853;-89
2022/01/29 03:21:44;;;;;;;11.67;10.47;;;4.10;99.90;;;;;;5060243;28;20489;-89
2022/01/29 03:24:10;;;;;;;15.43;10.93;;;4.10;99.90;;;;;;5057044;28;20482;-89
2022/01/29 03:26:37;;;;;;;12.93;10.77;;;4.10;99.90;;;;;;5060609;28;20455;-88
2022/01/29 03:29:05;;;;;;;15.03;11.47;;;4.00;99.90;;;;;;5055098;28;20966;-89
2022/01/29 03:31:32;;;;;;;12.40;9.90;;;4.10;99.90;;;;;;5055516;28;20447;-89
2022/01/29 03:33:59;;;;;;;12.27;9.53;;;4.20;99.90;;;;;;5054286;28;20956;-88
2022/01/29 03:36:26;;;;;;;14.30;11.17;;;4.20;99.90;;;;;;5054713;28;20809;-89
2022/01/29 03:38:52;;;;;;;16.07;10.77;;;4.10;99.90;;;;;;5063853;28;20477;-88
2022/01/29 03:41:19;;;;;;;10.97;9.87;;;4.20;99.90;;;;;;5082680;28;20427;-88
2022/01/29 03:43:50;;;;;;;16.80;12.80;;;4.20;99.90;;;;;;5058247;28;20467;-88
2022/01/29 03:46:18;;;;;;;14.47;11.27;;;4.20;99.90;;;;;;5056852;28;20493;-89
2022/01/29 03:48:44;;;;;;;14.00;11.57;;;4.20;99.90;;;;;;5058585;28;20923;-89
2022/01/29 03:51:11;;;;;;;16.30;10.83;;;4.20;99.90;;;;;;5058835;28;20494;-88
2022/01/29 03:53:38;;;;;;;15.27;11.40;;;4.30;99.90;;;;;;5057633;28;20903;-88
2022/01/29 03:56:05;;;;;;;13.73;9.77;;;4.30;99.90;;;;;;5054434;28;20455;-89
2022/01/29 03:58:32;;;;;;;12.47;11.17;;;4.30;99.90;;;;;;5061246;28;20459;-88
2022/01/29 04:00:58;;;;;;;17.13;10.47;;;4.30;99.90;;;;;;5056769;28;20871;-89
2022/01/29 04:03:26;;;;;;;12.97;9.73;;;4.40;99.90;;;;;;5053829;28;21045;-88
2022/01/29 04:05:53;;;;;;;13.03;9.47;;;4.40;99.90;;;;;;5056024;28;20456;-88
2022/01/29 04:08:20;;;;;;;11.57;9.80;;;4.50;99.90;;;;;;5060659;28;20483;-88
2022/01/29 04:10:47;;;;;;;14.37;11.37;;;4.40;99.90;;;;;;5057437;28;20498;-88
2022/01/29 04:13:15;;;;;;;13.10;10.00;;;4.40;99.90;;;;;;5060159;28;20446;-88
2022/01/29 04:15:42;;;;;;;10.00;9.00;;;4.40;99.90;;;;;;5066521;28;20879;-89
2022/01/29 04:18:08;;;;;;;11.40;9.47;;;4.40;99.90;;;;;;5057009;28;20479;-88
2022/01/29 04:20:36;;;;;;;13.47;10.90;;;4.30;99.90;;;;;;5056303;28;20452;-88
2022/01/29 04:23:06;;;;;;;12.83;10.13;;;4.40;99.90;;;;;;5055966;28;20974;-88
2022/01/29 04:25:33;;;;;;;14.10;9.70;;;4.40;99.90;;;;;;5064353;28;20520;-88
2022/01/29 04:28:00;;;;;;;13.60;10.90;;;4.30;99.90;;;;;;5071711;28;20496;-89
2022/01/29 04:30:31;;;;;;;12.20;11.00;;;4.40;99.90;;;;;;5069083;28;20492;-88
2022/01/29 04:33:02;;;;;;;12.40;10.50;;;4.40;99.90;;;;;;5064863;28;20991;-88
2022/01/29 04:35:30;;;;;;;11.40;9.90;;;4.40;99.90;;;;;;5053938;28;20511;-88
2022/01/29 04:37:58;;;;;;;13.30;11.70;;;4.40;99.90;;;;;;5053169;28;20460;-89
2022/01/29 04:40:25;;;;;;;11.47;9.80;;;4.40;99.90;;;;;;5057308;28;20493;-89
2022/01/29 04:42:52;;;;;;;14.10;10.33;;;4.40;99.90;;;;;;5054946;28;20447;-88
2022/01/29 04:45:18;;;;;;;15.53;11.87;;;4.40;99.90;;;;;;5056405;28;20494;-88
2022/01/29 04:47:45;;;;;;;14.47;11.10;;;4.40;99.90;;;;;;5058657;28;20857;-89
2022/01/29 04:50:12;;;;;;;12.23;10.93;;;4.40;99.90;;;;;;5060133;28;20455;-88
2022/01/29 04:52:39;;;;;;;12.47;10.20;;;4.40;99.90;;;;;;5055643;28;20447;-88
2022/01/29 04:55:09;;;;;;;13.43;9.60;;;4.40;99.90;;;;;;5058183;28;20538;-89
2022/01/29 04:57:37;;;;;;;13.37;10.70;;;4.40;99.90;;;;;;5079596;28;20468;-88
2022/01/29 05:00:07;;;;;;;14.60;10.87;;;4.40;99.90;;;;;;5077171;28;20488;-88
2022/01/29 05:02:35;;;;;;;15.53;11.57;;;4.40;99.90;;;;;;5061323;28;20482;-88
2022/01/29 05:05:03;;;;;;;17.73;11.27;;;4.40;99.90;;;;;;5063415;28;20566;-88
2022/01/29 05:07:30;;;;;;;16.57;13.93;;;4.40;99.90;;;;;;5059180;28;20468;-88
2022/01/29 05:09:57;;;;;;;14.30;11.90;;;4.40;99.90;;;;;;5060966;28;20502;-89
2022/01/29 05:12:29;;;;;;;13.80;11.80;;;4.40;99.90;;;;;;5074867;28;20463;-88
2022/01/29 05:15:08;;;;;;;14.40;12.60;;;4.40;99.90;;;;;;5082483;28;20425;-88
2022/01/29 05:28:33;;;;;;;14.37;11.53;;;4.40;99.90;;;;;;5082862;28;20458;-88
2022/01/29 05:31:00;;;;;;;23.27;11.90;;;4.40;99.90;;;;;;5072905;28;20508;-88
2022/01/29 05:33:26;;;;;;;15.97;11.70;;;4.40;99.90;;;;;;5065689;28;20792;-88
2022/01/29 05:35:53;;;;;;;14.23;12.60;;;4.40;99.90;;;;;;5060909;28;20947;-88
2022/01/29 05:38:20;;;;;;;15.27;13.27;;;4.40;99.90;;;;;;5060974;28;20537;-87
2022/01/29 05:40:47;;;;;;;14.00;12.50;;;4.40;99.90;;;;;;5062842;28;20441;-89
2022/01/29 05:43:14;;;;;;;19.90;13.30;;;4.40;99.90;;;;;;5059604;28;20448;-89
2022/01/29 05:45:42;;;;;;;17.40;13.97;;;4.40;99.90;;;;;;5055144;28;20479;-87
2022/01/29 05:48:08;;;;;;;21.67;13.67;;;4.40;99.90;;;;;;5059736;28;22201;-88
2022/01/29 05:50:35;;;;;;;17.27;14.53;;;4.40;99.90;;;;;;5057648;28;20834;-89
2022/01/29 05:53:02;;;;;;;17.87;14.80;;;4.40;99.90;;;;;;5059350;28;20463;-89
2022/01/29 05:55:29;;;;;;;17.83;14.70;;;4.40;99.90;;;;;;5055271;28;20465;-88
2022/01/29 05:57:55;;;;;;;18.90;14.33;;;4.40;99.90;;;;;;5054958;28;20821;-88
2022/01/29 06:00:22;;;;;;;20.90;14.77;;;4.40;99.90;;;;;;5070977;28;20439;-88
2022/01/29 06:03:00;;;;;;;16.27;13.43;;;4.40;99.90;;;;;;5059645;28;21002;-88
2022/01/29 06:05:27;;;;;;;20.30;16.67;;;4.40;99.90;;;;;;5062933;28;20487;-89
2022/01/29 06:07:54;;;;;;;19.83;14.87;;;4.40;99.90;;;;;;5056549;28;20479;-89
2022/01/29 06:10:21;;;;;;;21.50;15.67;;;4.40;99.90;;;;;;5054652;28;20940;-89
2022/01/29 06:13:02;;;;;;;18.23;14.33;;;4.40;99.90;;;;;;5067004;28;20491;-87
2022/01/29 06:15:29;;;;;;;16.40;13.87;;;4.40;99.90;;;;;;5083415;28;20483;-88
2022/01/29 06:17:56;;;;;;;21.20;15.27;;;4.40;99.90;;;;;;5082213;28;20489;-88
2022/01/29 06:20:24;;;;;;;18.47;15.70;;;4.40;99.90;;;;;;5063499;28;20447;-89
2022/01/29 06:22:51;;;;;;;22.07;16.30;;;4.40;99.90;;;;;;5071155;28;20443;-88
2022/01/29 06:25:18;;;;;;;17.60;14.93;;;4.40;99.90;;;;;;5073097;28;20486;-88
2022/01/29 06:27:45;;;;;;;25.53;17.60;;;4.40;99.90;;;;;;5073951;28;20485;-88
2022/01/29 06:30:13;;;;;;;21.27;16.40;;;4.40;99.90;;;;;;5081289;28;20446;-89
2022/01/29 06:32:40;;;;;;;18.33;15.70;;;4.40;99.90;;;;;;5064498;28;20898;-88
2022/01/29 06:35:07;;;;;;;25.13;18.13;;;4.40;99.90;;;;;;5058645;28;20526;-88
2022/01/29 06:37:35;;;;;;;22.03;17.50;;;4.40;99.90;;;;;;5059413;28;20994;-88
2022/01/29 06:40:03;;;;;;;20.97;16.27;;;4.40;99.90;;;;;;5056060;28;20458;-88
2022/01/29 06:42:30;;;;;;;23.07;16.43;;;4.40;99.90;;;;;;5070775;28;20452;-88
2022/01/29 06:44:57;;;;;;;20.33;16.20;;;4.30;99.90;;;;;;5058810;28;20467;-89
2022/01/29 06:47:23;;;;;;;20.67;16.53;;;4.30;99.90;;;;;;5066771;28;20580;-88
2022/01/29 06:49:51;;;;;;;21.87;17.20;;;4.40;99.90;;;;;;5060667;28;20967;-88
2022/01/29 06:52:17;;;;;;;21.07;17.93;;;4.40;99.90;;;;;;5073655;28;20443;-89
2022/01/29 06:54:45;;;;;;;24.13;17.40;;;4.40;99.90;;;;;;5087893;28;20446;-88
2022/01/29 06:57:12;;;;;;;23.17;16.87;;;4.40;99.90;;;;;;5070633;28;20533;-88
2022/01/29 06:59:39;;;;;;;21.67;17.03;;;4.30;99.90;;;;;;5057850;28;20506;-89
2022/01/29 07:02:06;;;;;;;18.83;15.30;;;4.30;99.90;;;;;;5063705;28;20450;-89
2022/01/29 07:04:32;;;;;;;22.87;15.40;;;4.30;99.90;;;;;;5066489;28;20993;-89
2022/01/29 07:06:59;;;;;;;19.60;15.80;;;4.30;99.90;;;;;;5060193;28;20499;-89
2022/01/29 07:09:26;;;;;;;20.30;15.80;;;4.30;99.90;;;;;;5062449;28;20442;-88
2022/01/29 07:11:55;;;;;;;20.00;16.03;;;4.40;99.90;;;;;;5059786;28;20550;-88
2022/01/29 07:14:22;;;;;;;19.33;15.63;;;4.40;99.90;;;;;;5058783;28;20443;-87
2022/01/29 07:16:49;;;;;;;21.47;16.03;;;4.40;99.90;;;;;;5083996;28;20445;-87
2022/01/29 07:19:15;;;;;;;16.00;14.40;;;4.40;99.90;;;;;;5067093;28;20443;-88
2022/01/29 07:21:42;;;;;;;20.93;16.73;;;4.40;99.90;;;;;;5056036;28;20455;-89
2022/01/29 07:24:09;;;;;;;19.20;15.80;;;4.30;99.90;;;;;;5063507;28;20464;-89
2022/01/29 07:26:36;;;;;;;22.33;15.73;;;4.40;99.90;;;;;;5052708;28;20834;-89
2022/01/29 07:29:04;;;;;;;20.70;15.73;;;4.40;99.90;;;;;;5060059;28;20457;-89
2022/01/29 07:31:30;;;;;;;20.63;14.47;;;4.40;99.90;;;;;;5074288;28;20454;-89
2022/01/29 07:33:57;;;;;;;17.53;14.87;;;4.40;99.90;;;;;;5056231;28;20446;-88
2022/01/29 07:36:24;;;;;;;19.60;15.70;;;4.40;99.90;;;;;;5059305;28;20484;-89
2022/01/29 07:38:50;;;;;;;17.40;15.07;;;4.40;99.90;;;;;;5058011;28;20478;-89
2022/01/29 07:41:17;;;;;;;17.87;14.50;;;4.40;99.90;;;;;;5058655;28;20818;-89
2022/01/29 07:43:44;;;;;;;17.13;13.40;;;4.50;99.90;;;;;;5067755;28;20442;-89
2022/01/29 07:46:12;;;;;;;19.77;16.20;;;4.40;99.90;;;;;;5056332;28;20991;-89
2022/01/29 07:48:38;;;;;;;17.17;14.10;;;4.40;99.90;;;;;;5059356;28;20475;-89
2022/01/29 07:51:05;;;;;;;18.50;13.93;;;4.50;99.90;;;;;;5059076;28;20486;-89
2022/01/29 07:53:32;;;;;;;14.90;12.67;;;4.50;99.90;;;;;;5053860;28;20455;-89
2022/01/29 07:55:58;;;;;;;19.80;13.00;;;4.50;99.90;;;;;;5060410;28;20455;-89
2022/01/29 07:58:25;;;;;;;17.43;13.90;;;4.60;99.90;;;;;;5052081;28;20506;-89
2022/01/29 08:00:53;;;;;;;17.30;12.83;;;4.60;99.90;;;;;;5053944;28;20501;-88
2022/01/29 08:03:21;;;;;;;12.60;9.07;;;4.60;99.90;;;;;;5060156;28;20525;-89
2022/01/29 08:05:47;;;;;;;12.23;9.77;;;4.70;99.90;;;;;;5054214;28;20513;-89
2022/01/29 08:08:14;;;;;;;9.73;8.73;;;4.70;99.90;;;;;;5055852;28;20479;-89
2022/01/29 08:10:41;;;;;;;10.80;8.77;;;4.70;99.90;;;;;;5058311;28;20441;-89
2022/01/29 08:13:08;;;;;;;12.00;7.87;;;4.80;99.90;;;;;;5059597;28;21036;-88
2022/01/29 08:15:34;;;;;;;11.70;8.50;;;4.80;99.90;;;;;;5068447;28;20442;-89
2022/01/29 08:18:01;;;;;;;9.13;7.60;;;4.80;99.90;;;;;;5067741;28;20471;-89
2022/01/29 08:20:29;;;;;;;9.03;7.00;;;4.90;99.90;;;;;;5061213;28;20451;-89
2022/01/29 08:22:56;;;;;;;6.33;4.80;;;4.90;99.90;;;;;;5055065;28;20440;-88
2022/01/29 08:25:22;;;;;;;8.73;6.10;;;5.00;99.90;;;;;;5065627;28;20536;-88
2022/01/29 08:27:49;;;;;;;4.20;3.70;;;5.00;99.90;;;;;;5076408;28;20464;-89
2022/01/29 08:30:16;;;;;;;5.00;3.60;;;5.10;99.90;;;;;;5067799;28;20460;-88
2022/01/29 08:32:43;;;;;;;6.80;4.33;;;5.20;99.90;;;;;;5055532;28;20448;-89
2022/01/29 08:35:10;;;;;;;5.77;3.63;;;5.30;99.90;;;;;;5061538;28;20460;-89
2022/01/29 08:37:38;;;;;;;6.23;5.03;;;5.30;99.90;;;;;;5056403;28;20474;-89
2022/01/29 08:40:06;;;;;;;4.80;4.30;;;5.40;99.90;;;;;;5060663;28;20507;-90
2022/01/29 08:42:33;;;;;;;5.70;3.97;;;5.50;99.90;;;;;;5060757;28;20449;-90
2022/01/29 08:45:00;;;;;;;8.00;3.63;;;5.60;99.70;;;;;;5061812;28;21180;-90
2022/01/29 08:47:27;;;;;;;4.70;3.73;;;5.70;99.40;;;;;;5077539;28;20519;-90
2022/01/29 08:49:55;;;;;;;5.60;4.07;;;5.80;98.50;;;;;;5073614;28;20502;-89
2022/01/29 08:52:22;;;;;;;6.00;4.93;;;5.80;98.30;;;;;;5061428;28;20947;-89
2022/01/29 08:54:50;;;;;;;4.20;3.80;;;5.80;98.60;;;;;;5075577;28;20438;-90
2022/01/29 08:57:17;;;;;;;8.33;4.37;;;5.80;98.40;;;;;;5066077;28;20459;-89
2022/01/29 08:59:43;;;;;;;7.50;4.53;;;5.80;98.50;;;;;;5066187;28;20525;-89
2022/01/29 09:02:10;;;;;;;6.10;3.87;;;5.80;98.00;;;;;;5098178;28;20431;-89
2022/01/29 09:04:37;;;;;;;5.90;4.30;;;5.90;98.20;;;;;;5068999;28;20436;-89
2022/01/29 09:07:04;;;;;;;6.67;4.50;;;5.80;97.90;;;;;;5056626;28;20487;-89
2022/01/29 09:09:31;;;;;;;5.63;3.93;;;5.90;98.20;;;;;;5058311;28;20456;-89
2022/01/29 09:12:01;;;;;;;5.80;4.20;;;6.00;98.20;;;;;;5063582;28;20865;-89
2022/01/29 09:14:27;;;;;;;4.23;3.80;;;5.90;97.60;;;;;;5059907;28;20474;-88
2022/01/29 09:16:54;;;;;;;4.17;3.77;;;5.90;97.70;;;;;;5059720;28;20978;-89
2022/01/29 09:19:21;;;;;;;8.33;5.00;;;6.00;97.90;;;;;;5062531;28;20446;-89
2022/01/29 09:21:48;;;;;;;6.10;5.10;;;6.00;97.60;;;;;;5060144;28;20881;-88
2022/01/29 09:26:51;;;;;;;6.73;5.47;;;6.10;97.30;;;;;;5074755;28;20514;-88
2022/01/29 09:29:19;;;;;;;12.43;5.50;;;6.10;97.40;;;;;;5079378;28;20443;-87
2022/01/29 09:31:46;;;;;;;8.73;5.07;;;6.20;97.40;;;;;;5075933;28;20432;-87
2022/01/29 09:34:13;;;;;;;4.93;4.33;;;6.30;97.60;;;;;;5077475;28;20448;-87
2022/01/29 09:36:40;;;;;;;6.97;4.63;;;6.40;97.80;;;;;;5103577;28;20458;-88
2022/01/29 09:39:06;;;;;;;6.63;5.00;;;6.50;97.60;;;;;;5108877;28;20431;-88
2022/01/29 09:41:34;;;;;;;9.23;4.67;;;6.70;97.10;;;;;;5094949;28;20457;-88
2022/01/29 09:44:01;;;;;;;5.57;4.73;;;6.80;96.70;;;;;;5079609;28;20454;-88
2022/01/29 09:46:30;;;;;;;6.53;5.20;;;7.00;96.50;;;;;;5061866;28;20530;-88
2022/01/29 09:48:57;;;;;;;8.50;4.80;;;7.00;96.30;;;;;;5057411;28;20535;-88
2022/01/29 09:51:24;;;;;;;7.27;4.30;;;6.90;96.30;;;;;;5056965;28;20448;-87
2022/01/29 09:53:51;;;;;;;5.23;4.73;;;7.00;96.70;;;;;;5070757;28;20443;-88
2022/01/29 09:56:18;;;;;;;8.60;5.00;;;7.00;96.50;;;;;;5072559;28;20513;-88
2022/01/29 09:58:45;;;;;;;5.00;4.37;;;7.10;96.70;;;;;;5069170;28;20443;-87
2022/01/29 10:01:13;;;;;;;5.37;4.87;;;7.30;96.40;;;;;;5077159;28;20452;-88
2022/01/29 10:03:41;;;;;;;5.00;4.50;;;7.60;96.70;;;;;;5098325;28;20463;-88
2022/01/29 10:06:15;;;;;;;4.90;4.40;;;8.20;96.30;;;;;;5090571;28;20478;-88
2022/01/29 10:08:44;;;;;;;7.53;4.60;;;8.60;95.00;;;;;;5080995;28;20552;-86
2022/01/29 10:11:20;;;;;;;5.30;4.80;;;8.70;94.70;;;;;;5087503;28;20516;-85
2022/01/29 10:13:47;;;;;;;7.43;6.00;;;8.70;94.40;;;;;;5086187;28;20449;-86
2022/01/29 10:16:18;;;;;;;6.07;4.30;;;8.30;94.80;;;;;;5082753;28;20872;-86
2022/01/29 10:18:48;;;;;;;6.40;5.00;;;8.10;95.30;;;;;;5075993;28;20482;-85
2022/01/29 10:21:18;;;;;;;5.70;4.70;;;8.10;95.40;;;;;;5080014;28;21009;-85
2022/01/29 10:23:45;;;;;;;7.97;5.00;;;8.20;95.60;;;;;;5107879;28;20492;-84
2022/01/29 10:26:26;;;;;;;7.43;4.37;;;8.30;95.40;;;;;;5119753;28;20470;-84
2022/01/29 10:28:54;;;;;;;6.20;4.50;;;8.60;95.90;;;;;;5120438;28;20434;-83
2022/01/29 10:31:21;;;;;;;4.90;4.10;;;8.60;95.30;;;;;;5113798;28;20439;-85
2022/01/29 10:33:49;;;;;;;4.90;3.60;;;8.80;95.30;;;;;;5098262;28;20462;-86
2022/01/29 10:36:19;;;;;;;6.43;5.30;;;8.50;95.50;;;;;;5108905;28;20462;-86
2022/01/29 10:38:50;;;;;;;6.57;4.77;;;8.40;96.00;;;;;;5103281;28;20440;-85
2022/01/29 10:41:22;;;;;;;6.20;4.27;;;8.60;95.90;;;;;;5088045;28;20489;-85
2022/01/29 10:46:59;;;;;;;5.03;3.83;;;8.70;96.00;;;;;;5091908;28;21043;-91
2022/01/29 11:04:27;;;;;;;5.73;4.10;;;8.50;97.20;;;;;;4847371;29;20475;-90
2022/01/29 11:07:29;;;;;;;4.40;3.77;;;8.50;97.50;;;;;;4933750;28;20580;-89
2022/01/29 11:10:05;;;;;;;4.23;3.23;;;8.60;97.80;;;;;;5085719;28;20504;-90
2022/01/29 11:12:32;;;;;;;6.33;3.47;;;8.60;97.70;;;;;;5092031;28;20510;-85
2022/01/29 11:15:18;;;;;;;4.37;3.37;;;8.70;97.90;;;;;;5101127;28;20520;-89
2022/01/29 11:17:48;;;;;;;4.90;3.10;;;8.60;98.20;;;;;;5105581;28;20445;-84
2022/01/29 11:20:15;;;;;;;5.20;3.30;;;8.40;98.50;;;;;;5123071;27;20452;-85
2022/01/29 11:22:44;;;;;;;4.07;3.67;;;8.30;98.70;;;;;;5110321;28;20491;-86
2022/01/29 11:25:16;;;;;;;3.20;2.87;;;8.30;98.90;;;;;;5103976;28;20508;-82
2022/01/29 11:27:43;;;;;;;3.00;2.70;;;8.20;99.00;;;;;;5103677;28;20472;-84
2022/01/29 11:30:15;;;;;;;3.87;3.47;;;8.10;99.40;;;;;;5099191;28;20449;-84
2022/01/29 11:32:42;;;;;;;3.47;3.00;;;8.10;99.40;;;;;;5111913;28;20465;-84
2022/01/29 11:35:20;;;;;;;3.40;3.10;;;8.10;99.70;;;;;;5111761;28;21233;-84
2022/01/29 11:37:57;;;;;;;2.57;1.80;;;8.10;99.60;;;;;;5101775;28;20443;-83
2022/01/29 11:40:34;;;;;;;3.40;2.50;;;8.00;99.70;;;;;;5105675;28;20533;-92
2022/01/29 11:43:34;;;;;;;3.00;2.17;;;8.10;99.90;;;;;;5105576;28;20445;-90
2022/01/29 11:46:45;;;;;;;;;;;;;;;;;;;;;
2022/01/29 11:49:59;;;;;;;3.80;3.00;;;8.20;99.80;;;;;;5097492;28;20808;-91
2022/01/29 11:55:59;;;;;;;3.80;2.20;;;8.10;99.90;;;;;;5093723;22;20485;-91
2022/01/29 11:59:18;;;;;;;2.87;2.27;;;8.10;99.90;;;;;;5125207;27;20422;-88
2022/01/29 12:02:33;;;;;;;2.87;2.67;;;8.10;99.90;;;;;;5098548;28;20446;-90
2022/01/29 12:06:01;;;;;;;3.73;2.20;;;8.20;99.90;;;;;;5117412;28;20564;-91
2022/01/29 12:12:37;;;;;;;2.63;2.40;;;8.10;99.90;;;;;;4897735;29;20504;-90
2022/01/29 12:15:45;;;;;;;3.43;2.37;;;8.00;99.90;;;;;;4836832;29;20478;-90
2022/01/29 12:18:38;;;;;;;5.50;3.10;;;8.10;99.90;;;;;;4929459;28;20460;-91
2022/01/29 12:21:45;;;;;;;2.10;1.90;;;8.00;99.90;;;;;;5033565;28;20437;-91
2022/01/29 12:24:37;;;;;;;4.80;1.90;;;8.10;99.90;;;;;;5113639;28;20520;-90
2022/01/29 12:27:12;;;;;;;2.90;2.23;;;8.00;99.90;;;;;;5070472;28;20483;-90
2022/01/29 12:29:55;;;;;;;4.03;2.40;;;8.00;99.90;;;;;;5110940;28;20438;-90
2022/01/29 12:32:34;;;;;;;2.27;2.07;;;8.10;99.90;;;;;;5112911;28;20463;-91
2022/01/29 12:35:21;;;;;;;3.17;2.63;;;8.10;99.90;;;;;;5118099;28;20489;-90
2022/01/29 12:38:23;;;;;;;2.87;2.07;;;8.10;99.90;;;;;;5135258;28;20440;-90
2022/01/29 12:40:57;;;;;;;2.20;2.00;;;8.20;99.90;;;;;;5130167;28;20498;-90
2022/01/29 12:54:08;;;;;;;2.07;1.87;;;9.30;99.90;;;;;;5036427;28;20457;-92
2022/01/29 13:00:18;;;;;;;2.13;1.93;;;9.10;99.80;;;;;;5041294;28;20445;-91
2022/01/29 13:10:38;;;;;;;3.67;2.63;;;8.30;99.90;;;;;;5092721;28;20557;-91
2022/01/29 13:13:49;;;;;;;3.03;2.40;;;8.20;99.90;;;;;;5042709;28;20883;-91
2022/01/29 13:16:42;;;;;;;3.67;2.60;;;8.20;99.90;;;;;;5109516;28;20506;-90
2022/01/29 13:19:13;;;;;;;4.03;2.27;;;8.10;99.90;;;;;;5113325;28;20438;-92
2022/01/29 13:21:57;;;;;;;3.20;1.73;;;8.00;99.90;;;;;;5120922;28;20433;-91
2022/01/29 13:24:50;;;;;;;2.00;1.80;;;7.90;99.90;;;;;;5128644;28;20976;-92
2022/01/29 13:33:56;;;;;;;5.10;2.40;;;7.70;99.90;;;;;;5107643;28;20509;-92
2022/01/29 13:36:39;;;;;;;2.93;2.27;;;7.60;99.90;;;;;;5101471;28;20515;-91
2022/01/29 13:39:14;;;;;;;3.37;1.90;;;7.70;99.90;;;;;;5124187;28;20454;-92
2022/01/29 13:42:06;;;;;;;3.83;2.63;;;7.70;99.90;;;;;;5121938;28;20445;-91
2022/01/29 13:47:24;;;;;;;4.80;2.60;;;7.60;99.90;;;;;;5119113;28;20469;-91
2022/01/29 13:53:55;;;;;;;2.70;1.83;;;7.70;99.90;;;;;;5122237;28;20434;-92
2022/01/29 15:09:45;;;;;;;3.60;2.67;;;8.10;99.90;;;;;;4897070;29;20445;-91
2022/01/29 15:12:25;;;;;;;3.50;1.90;;;8.00;99.90;;;;;;4909313;29;20486;-91
2022/01/29 15:15:29;;;;;;;3.10;2.80;;;8.00;99.90;;;;;;4959024;29;20499;-92
2022/01/29 15:22:07;;;;;;;3.27;2.60;;;7.90;99.90;;;;;;5056786;28;20934;-91
2022/01/29 15:38:17;;;;;;;5.20;2.50;;;7.80;99.90;;;;;;5020547;28;20450;-90
2022/01/29 15:40:46;;;;;;;5.80;4.00;;;7.80;99.90;;;;;;5061440;27;20449;-88
2022/01/29 15:43:13;;;;;;;2.90;2.20;;;7.80;99.90;;;;;;5135645;28;20429;-85
2022/01/29 15:45:41;;;;;;;9.13;3.60;;;7.80;99.90;;;;;;5125073;28;20457;-85
2022/01/29 15:48:09;;;;;;;4.43;3.50;;;7.90;99.90;;;;;;5123646;28;20477;-86
2022/01/29 15:50:36;;;;;;;3.67;2.40;;;7.90;99.90;;;;;;5117616;28;20471;-87
2022/01/29 15:53:05;;;;;;;3.57;2.60;;;7.90;99.90;;;;;;5115308;28;20442;-85